sensor_id;sensor_type;location;lat;lon;timestamp;temperature;humidity
45008;DHT22;30743;52.008;5.644;2024-02-04T00:00:26;12.90;99.90
45008;DHT22;30743;52.008;5.644;2024-02-04T00:02:52;12.90;99.90
45008;DHT22;30743;52.008;5.644;2024-02-04T00:05:17;13.00;99.90
45008;DHT22;30743;52.008;5.644;2024-02-04T00:07:44;13.10;99.90
45008;DHT22;30743;52.008;5.644;2024-02-04T00:10:10;13.10;99.90
45008;DHT22;30743;52.008;5.644;2024-02-04T00:12:36;14.50;99.90
45008;DHT22;30743;52.008;5.644;2024-02-04T00:15:02;13.50;99.90
45008;DHT22;30743;52.008;5.644;2024-02-04T00:17:30;12.70;99.90
45008;DHT22;30743;52.008;5.644;2024-02-04T00:19:58;13.00;99.90
45008;DHT22;30743;52.008;5.644;2024-02-04T00:22:24;13.60;99.90
45008;DHT22;30743;52.008;5.644;2024-02-04T00:24:50;12.90;99.90
45008;DHT22;30743;52.008;5.644;2024-02-04T00:27:15;13.00;99.90
45008;DHT22;30743;52.008;5.644;2024-02-04T00:29:41;13.00;99.90
45008;DHT22;30743;52.008;5.644;2024-02-04T00:32:07;13.20;99.90
45008;DHT22;30743;52.008;5.644;2024-02-04T00:34:32;13.20;99.90
45008;DHT22;30743;52.008;5.644;2024-02-04T00:36:58;13.20;99.90
45008;DHT22;30743;52.008;5.644;2024-02-04T00:39:24;13.30;99.90
45008;DHT22;30743;52.008;5.644;2024-02-04T00:41:50;13.30;99.90
45008;DHT22;30743;52.008;5.644;2024-02-04T00:44:15;13.30;99.90
45008;DHT22;30743;52.008;5.644;2024-02-04T00:46:41;13.30;99.90
45008;DHT22;30743;52.008;5.644;2024-02-04T00:49:06;13.30;99.90
45008;DHT22;30743;52.008;5.644;2024-02-04T00:51:32;13.40;99.90
45008;DHT22;30743;52.008;5.644;2024-02-04T00:53:58;13.30;99.90
45008;DHT22;30743;52.008;5.644;2024-02-04T00:56:23;13.60;99.90
45008;DHT22;30743;52.008;5.644;2024-02-04T00:58:49;13.70;99.90
45008;DHT22;30743;52.008;5.644;2024-02-04T01:01:15;13.60;99.90
45008;DHT22;30743;52.008;5.644;2024-02-04T01:03:40;13.50;99.90
45008;DHT22;30743;52.008;5.644;2024-02-04T01:06:06;13.80;99.90
45008;DHT22;30743;52.008;5.644;2024-02-04T01:08:31;14.00;99.90
45008;DHT22;30743;52.008;5.644;2024-02-04T01:10:57;14.00;99.90
45008;DHT22;30743;52.008;5.644;2024-02-04T01:13:23;14.20;99.90
45008;DHT22;30743;52.008;5.644;2024-02-04T01:15:49;14.40;99.90
45008;DHT22;30743;52.008;5.644;2024-02-04T01:18:14;14.40;99.90
45008;DHT22;30743;52.008;5.644;2024-02-04T01:20:40;15.90;99.90
45008;DHT22;30743;52.008;5.644;2024-02-04T01:23:05;14.60;99.90
45008;DHT22;30743;52.008;5.644;2024-02-04T01:25:31;14.50;99.90
45008;DHT22;30743;52.008;5.644;2024-02-04T01:27:56;14.70;99.90
45008;DHT22;30743;52.008;5.644;2024-02-04T01:30:22;14.60;99.90
45008;DHT22;30743;52.008;5.644;2024-02-04T01:32:48;14.70;99.90
45008;DHT22;30743;52.008;5.644;2024-02-04T01:35:13;14.70;99.90
45008;DHT22;30743;52.008;5.644;2024-02-04T01:37:40;14.60;99.90
45008;DHT22;30743;52.008;5.644;2024-02-04T01:40:06;14.90;99.90
45008;DHT22;30743;52.008;5.644;2024-02-04T01:42:32;15.00;99.90
45008;DHT22;30743;52.008;5.644;2024-02-04T01:44:58;15.50;99.90
45008;DHT22;30743;52.008;5.644;2024-02-04T01:47:24;15.30;99.90
45008;DHT22;30743;52.008;5.644;2024-02-04T01:49:49;15.20;99.90
45008;DHT22;30743;52.008;5.644;2024-02-04T01:52:16;15.10;99.90
45008;DHT22;30743;52.008;5.644;2024-02-04T01:54:43;15.30;99.90
45008;DHT22;30743;52.008;5.644;2024-02-04T01:57:10;15.20;99.90
45008;DHT22;30743;52.008;5.644;2024-02-04T01:59:40;15.90;99.90
45008;DHT22;30743;52.008;5.644;2024-02-04T02:02:06;15.10;99.90
45008;DHT22;30743;52.008;5.644;2024-02-04T02:04:32;16.30;99.90
45008;DHT22;30743;52.008;5.644;2024-02-04T02:06:58;15.00;99.90
45008;DHT22;30743;52.008;5.644;2024-02-04T02:09:25;15.00;99.90
45008;DHT22;30743;52.008;5.644;2024-02-04T02:12:13;15.10;99.90
45008;DHT22;30743;52.008;5.644;2024-02-04T02:14:46;14.90;99.90
45008;DHT22;30743;52.008;5.644;2024-02-04T02:17:15;15.00;99.90
45008;DHT22;30743;52.008;5.644;2024-02-04T02:19:54;14.80;99.90
45008;DHT22;30743;52.008;5.644;2024-02-04T02:22:29;14.80;99.90
45008;DHT22;30743;52.008;5.644;2024-02-04T02:24:57;16.00;99.90
45008;DHT22;30743;52.008;5.644;2024-02-04T02:27:23;14.90;99.90
45008;DHT22;30743;52.008;5.644;2024-02-04T02:29:48;16.20;99.90
45008;DHT22;30743;52.008;5.644;2024-02-04T02:32:14;15.70;99.90
45008;DHT22;30743;52.008;5.644;2024-02-04T02:34:40;14.60;99.90
45008;DHT22;30743;52.008;5.644;2024-02-04T02:40:00;14.70;99.90
45008;DHT22;30743;52.008;5.644;2024-02-04T02:42:27;14.60;99.90
45008;DHT22;30743;52.008;5.644;2024-02-04T02:44:54;14.70;99.90
45008;DHT22;30743;52.008;5.644;2024-02-04T02:47:22;14.90;99.90
45008;DHT22;30743;52.008;5.644;2024-02-04T02:49:51;15.90;99.90
45008;DHT22;30743;52.008;5.644;2024-02-04T02:52:18;14.80;99.90
45008;DHT22;30743;52.008;5.644;2024-02-04T02:54:43;14.90;99.90
45008;DHT22;30743;52.008;5.644;2024-02-04T02:57:09;14.90;99.90
45008;DHT22;30743;52.008;5.644;2024-02-04T02:59:34;15.00;99.90
45008;DHT22;30743;52.008;5.644;2024-02-04T03:02:00;15.80;99.90
45008;DHT22;30743;52.008;5.644;2024-02-04T03:04:25;15.00;99.90
45008;DHT22;30743;52.008;5.644;2024-02-04T03:06:51;16.50;99.90
45008;DHT22;30743;52.008;5.644;2024-02-04T03:09:17;15.30;99.90
45008;DHT22;30743;52.008;5.644;2024-02-04T03:11:42;14.90;99.90
45008;DHT22;30743;52.008;5.644;2024-02-04T03:14:08;14.90;99.90
45008;DHT22;30743;52.008;5.644;2024-02-04T03:16:33;14.70;99.90
45008;DHT22;30743;52.008;5.644;2024-02-04T03:18:59;14.60;99.90
45008;DHT22;30743;52.008;5.644;2024-02-04T03:21:24;14.20;99.90
45008;DHT22;30743;52.008;5.644;2024-02-04T03:23:50;14.10;99.90
45008;DHT22;30743;52.008;5.644;2024-02-04T03:26:18;14.00;99.90
45008;DHT22;30743;52.008;5.644;2024-02-04T03:28:44;14.00;99.90
45008;DHT22;30743;52.008;5.644;2024-02-04T03:31:10;13.90;99.90
45008;DHT22;30743;52.008;5.644;2024-02-04T03:33:35;15.30;99.90
45008;DHT22;30743;52.008;5.644;2024-02-04T03:36:01;15.00;99.90
45008;DHT22;30743;52.008;5.644;2024-02-04T03:38:27;13.80;99.90
45008;DHT22;30743;52.008;5.644;2024-02-04T03:40:52;13.90;99.90
45008;DHT22;30743;52.008;5.644;2024-02-04T03:43:18;15.30;99.90
45008;DHT22;30743;52.008;5.644;2024-02-04T03:45:43;14.00;99.90
45008;DHT22;30743;52.008;5.644;2024-02-04T03:48:09;15.40;99.90
45008;DHT22;30743;52.008;5.644;2024-02-04T03:50:36;14.00;99.90
45008;DHT22;30743;52.008;5.644;2024-02-04T03:53:01;14.00;99.90
45008;DHT22;30743;52.008;5.644;2024-02-04T03:55:27;14.10;99.90
45008;DHT22;30743;52.008;5.644;2024-02-04T03:57:54;14.10;99.90
45008;DHT22;30743;52.008;5.644;2024-02-04T04:00:22;14.10;99.90
45008;DHT22;30743;52.008;5.644;2024-02-04T04:02:47;15.40;99.90
45008;DHT22;30743;52.008;5.644;2024-02-04T04:05:13;14.10;99.90
45008;DHT22;30743;52.008;5.644;2024-02-04T04:07:39;14.30;99.90
45008;DHT22;30743;52.008;5.644;2024-02-04T04:10:06;14.40;99.90
45008;DHT22;30743;52.008;5.644;2024-02-04T04:12:32;14.40;99.90
45008;DHT22;30743;52.008;5.644;2024-02-04T04:14:57;15.30;99.90
45008;DHT22;30743;52.008;5.644;2024-02-04T04:17:23;15.20;99.90
45008;DHT22;30743;52.008;5.644;2024-02-04T04:19:48;14.50;99.90
45008;DHT22;30743;52.008;5.644;2024-02-04T04:22:14;14.30;99.90
45008;DHT22;30743;52.008;5.644;2024-02-04T04:24:40;14.20;99.90
45008;DHT22;30743;52.008;5.644;2024-02-04T04:27:05;14.20;99.90
45008;DHT22;30743;52.008;5.644;2024-02-04T04:29:31;15.60;99.90
45008;DHT22;30743;52.008;5.644;2024-02-04T04:31:56;14.40;99.90
45008;DHT22;30743;52.008;5.644;2024-02-04T04:34:22;14.30;99.90
45008;DHT22;30743;52.008;5.644;2024-02-04T04:36:48;14.20;99.90
45008;DHT22;30743;52.008;5.644;2024-02-04T04:39:13;14.20;99.90
45008;DHT22;30743;52.008;5.644;2024-02-04T04:41:40;14.30;99.90
45008;DHT22;30743;52.008;5.644;2024-02-04T04:44:06;14.50;99.90
45008;DHT22;30743;52.008;5.644;2024-02-04T04:46:31;15.30;99.90
45008;DHT22;30743;52.008;5.644;2024-02-04T04:48:57;14.50;99.90
45008;DHT22;30743;52.008;5.644;2024-02-04T04:51:24;14.60;99.90
45008;DHT22;30743;52.008;5.644;2024-02-04T04:53:49;15.60;99.90
45008;DHT22;30743;52.008;5.644;2024-02-04T04:56:15;15.00;99.90
45008;DHT22;30743;52.008;5.644;2024-02-04T04:58:40;13.90;99.90
45008;DHT22;30743;52.008;5.644;2024-02-04T05:01:06;15.20;99.90
45008;DHT22;30743;52.008;5.644;2024-02-04T05:03:31;14.10;99.90
45008;DHT22;30743;52.008;5.644;2024-02-04T05:05:57;15.50;99.90
45008;DHT22;30743;52.008;5.644;2024-02-04T05:08:23;14.10;99.90
45008;DHT22;30743;52.008;5.644;2024-02-04T05:10:49;15.00;99.90
45008;DHT22;30743;52.008;5.644;2024-02-04T05:13:14;14.00;99.90
45008;DHT22;30743;52.008;5.644;2024-02-04T05:15:40;13.90;99.90
45008;DHT22;30743;52.008;5.644;2024-02-04T05:18:05;15.30;99.90
45008;DHT22;30743;52.008;5.644;2024-02-04T05:20:31;13.70;99.90
45008;DHT22;30743;52.008;5.644;2024-02-04T05:22:57;13.80;99.90
45008;DHT22;30743;52.008;5.644;2024-02-04T05:25:23;13.90;99.90
45008;DHT22;30743;52.008;5.644;2024-02-04T05:27:49;13.90;99.90
45008;DHT22;30743;52.008;5.644;2024-02-04T05:30:14;14.00;99.90
45008;DHT22;30743;52.008;5.644;2024-02-04T05:32:41;14.00;99.90
45008;DHT22;30743;52.008;5.644;2024-02-04T05:35:07;14.20;99.90
45008;DHT22;30743;52.008;5.644;2024-02-04T05:37:33;14.10;99.90
45008;DHT22;30743;52.008;5.644;2024-02-04T05:39:59;14.20;99.90
45008;DHT22;30743;52.008;5.644;2024-02-04T05:42:25;14.20;99.90
45008;DHT22;30743;52.008;5.644;2024-02-04T05:44:50;14.20;99.90
45008;DHT22;30743;52.008;5.644;2024-02-04T05:47:16;14.10;99.90
45008;DHT22;30743;52.008;5.644;2024-02-04T05:49:41;14.10;99.90
45008;DHT22;30743;52.008;5.644;2024-02-04T05:52:07;15.70;99.90
45008;DHT22;30743;52.008;5.644;2024-02-04T05:54:37;15.10;99.90
45008;DHT22;30743;52.008;5.644;2024-02-04T05:57:04;14.00;99.90
45008;DHT22;30743;52.008;5.644;2024-02-04T05:59:30;14.40;99.90
45008;DHT22;30743;52.008;5.644;2024-02-04T06:01:55;15.40;99.90
45008;DHT22;30743;52.008;5.644;2024-02-04T06:04:21;13.90;99.90
45008;DHT22;30743;52.008;5.644;2024-02-04T06:06:47;14.00;99.90
45008;DHT22;30743;52.008;5.644;2024-02-04T06:09:12;14.30;99.90
45008;DHT22;30743;52.008;5.644;2024-02-04T06:11:39;14.20;99.90
45008;DHT22;30743;52.008;5.644;2024-02-04T06:14:04;14.20;99.90
45008;DHT22;30743;52.008;5.644;2024-02-04T06:16:30;14.10;99.90
45008;DHT22;30743;52.008;5.644;2024-02-04T06:18:55;13.70;99.90
45008;DHT22;30743;52.008;5.644;2024-02-04T06:21:23;13.90;99.90
45008;DHT22;30743;52.008;5.644;2024-02-04T06:23:49;13.30;99.90
45008;DHT22;30743;52.008;5.644;2024-02-04T06:26:14;13.80;99.90
45008;DHT22;30743;52.008;5.644;2024-02-04T06:28:40;13.00;99.90
45008;DHT22;30743;52.008;5.644;2024-02-04T06:31:09;13.00;99.90
45008;DHT22;30743;52.008;5.644;2024-02-04T06:33:34;13.10;99.90
45008;DHT22;30743;52.008;5.644;2024-02-04T06:36:00;13.30;99.90
45008;DHT22;30743;52.008;5.644;2024-02-04T06:38:25;13.40;99.90
45008;DHT22;30743;52.008;5.644;2024-02-04T06:40:51;13.50;99.90
45008;DHT22;30743;52.008;5.644;2024-02-04T06:43:17;13.60;99.90
45008;DHT22;30743;52.008;5.644;2024-02-04T06:45:42;13.60;99.90
45008;DHT22;30743;52.008;5.644;2024-02-04T06:48:08;13.60;99.90
45008;DHT22;30743;52.008;5.644;2024-02-04T06:50:35;13.60;99.90
45008;DHT22;30743;52.008;5.644;2024-02-04T06:53:01;14.10;99.90
45008;DHT22;30743;52.008;5.644;2024-02-04T06:55:26;13.40;99.90
45008;DHT22;30743;52.008;5.644;2024-02-04T06:57:52;13.40;99.90
45008;DHT22;30743;52.008;5.644;2024-02-04T07:00:17;13.30;99.90
45008;DHT22;30743;52.008;5.644;2024-02-04T07:02:43;13.30;99.90
45008;DHT22;30743;52.008;5.644;2024-02-04T07:05:09;13.20;99.90
45008;DHT22;30743;52.008;5.644;2024-02-04T07:07:36;13.30;99.90
45008;DHT22;30743;52.008;5.644;2024-02-04T07:10:02;13.30;99.90
45008;DHT22;30743;52.008;5.644;2024-02-04T07:12:27;13.40;99.90
45008;DHT22;30743;52.008;5.644;2024-02-04T07:14:53;13.00;99.90
45008;DHT22;30743;52.008;5.644;2024-02-04T07:17:18;12.90;99.90
45008;DHT22;30743;52.008;5.644;2024-02-04T07:19:44;12.90;99.90
45008;DHT22;30743;52.008;5.644;2024-02-04T07:22:09;12.90;99.90
45008;DHT22;30743;52.008;5.644;2024-02-04T07:24:35;12.90;99.90
45008;DHT22;30743;52.008;5.644;2024-02-04T07:27:01;12.90;99.90
45008;DHT22;30743;52.008;5.644;2024-02-04T07:29:26;12.80;99.90
45008;DHT22;30743;52.008;5.644;2024-02-04T07:31:52;12.60;99.90
45008;DHT22;30743;52.008;5.644;2024-02-04T07:34:17;12.60;99.90
45008;DHT22;30743;52.008;5.644;2024-02-04T07:36:43;12.40;99.90
45008;DHT22;30743;52.008;5.644;2024-02-04T07:39:10;12.30;99.90
45008;DHT22;30743;52.008;5.644;2024-02-04T07:41:36;12.40;99.90
45008;DHT22;30743;52.008;5.644;2024-02-04T07:44:01;12.50;99.90
45008;DHT22;30743;52.008;5.644;2024-02-04T07:46:27;12.50;99.90
45008;DHT22;30743;52.008;5.644;2024-02-04T07:48:52;12.70;99.90
45008;DHT22;30743;52.008;5.644;2024-02-04T07:51:18;12.70;99.90
45008;DHT22;30743;52.008;5.644;2024-02-04T07:53:43;13.80;99.90
45008;DHT22;30743;52.008;5.644;2024-02-04T07:56:09;12.80;99.90
45008;DHT22;30743;52.008;5.644;2024-02-04T07:58:36;12.90;99.90
45008;DHT22;30743;52.008;5.644;2024-02-04T08:01:02;13.00;99.90
45008;DHT22;30743;52.008;5.644;2024-02-04T08:03:27;13.10;99.90
45008;DHT22;30743;52.008;5.644;2024-02-04T08:05:53;13.60;99.90
45008;DHT22;30743;52.008;5.644;2024-02-04T08:08:18;13.50;99.90
45008;DHT22;30743;52.008;5.644;2024-02-04T08:10:44;13.60;99.90
45008;DHT22;30743;52.008;5.644;2024-02-04T08:13:10;13.40;99.90
45008;DHT22;30743;52.008;5.644;2024-02-04T08:15:35;13.50;99.90
45008;DHT22;30743;52.008;5.644;2024-02-04T08:18:01;13.40;99.90
45008;DHT22;30743;52.008;5.644;2024-02-04T08:20:27;13.20;99.90
45008;DHT22;30743;52.008;5.644;2024-02-04T08:22:54;13.10;99.90
45008;DHT22;30743;52.008;5.644;2024-02-04T08:25:19;13.10;99.90
45008;DHT22;30743;52.008;5.644;2024-02-04T08:27:46;12.90;99.90
45008;DHT22;30743;52.008;5.644;2024-02-04T08:30:11;13.00;99.90
45008;DHT22;30743;52.008;5.644;2024-02-04T08:32:38;13.00;99.90
45008;DHT22;30743;52.008;5.644;2024-02-04T08:35:04;13.10;99.90
45008;DHT22;30743;52.008;5.644;2024-02-04T08:37:31;13.10;99.90
45008;DHT22;30743;52.008;5.644;2024-02-04T08:39:57;13.50;99.90
45008;DHT22;30743;52.008;5.644;2024-02-04T08:42:23;13.20;99.90
45008;DHT22;30743;52.008;5.644;2024-02-04T08:44:48;13.30;99.90
45008;DHT22;30743;52.008;5.644;2024-02-04T08:47:15;14.50;99.90
45008;DHT22;30743;52.008;5.644;2024-02-04T08:49:42;13.30;99.90
45008;DHT22;30743;52.008;5.644;2024-02-04T08:52:08;14.50;99.90
45008;DHT22;30743;52.008;5.644;2024-02-04T08:54:33;13.50;99.90
45008;DHT22;30743;52.008;5.644;2024-02-04T08:56:59;13.40;99.90
45008;DHT22;30743;52.008;5.644;2024-02-04T08:59:24;13.40;99.90
45008;DHT22;30743;52.008;5.644;2024-02-04T09:01:50;13.20;99.90
45008;DHT22;30743;52.008;5.644;2024-02-04T09:04:16;13.00;99.90
45008;DHT22;30743;52.008;5.644;2024-02-04T09:06:41;13.10;99.90
45008;DHT22;30743;52.008;5.644;2024-02-04T09:09:07;13.10;99.90
45008;DHT22;30743;52.008;5.644;2024-02-04T09:11:34;14.20;99.90
45008;DHT22;30743;52.008;5.644;2024-02-04T09:14:00;13.10;99.90
45008;DHT22;30743;52.008;5.644;2024-02-04T09:16:25;13.00;99.90
45008;DHT22;30743;52.008;5.644;2024-02-04T09:18:51;12.70;99.90
45008;DHT22;30743;52.008;5.644;2024-02-04T09:21:16;12.50;99.90
45008;DHT22;30743;52.008;5.644;2024-02-04T09:23:42;12.70;99.90
45008;DHT22;30743;52.008;5.644;2024-02-04T09:26:08;12.80;99.90
45008;DHT22;30743;52.008;5.644;2024-02-04T09:28:33;12.80;99.90
45008;DHT22;30743;52.008;5.644;2024-02-04T09:30:59;12.80;99.90
45008;DHT22;30743;52.008;5.644;2024-02-04T09:33:24;12.80;99.90
45008;DHT22;30743;52.008;5.644;2024-02-04T09:35:50;13.60;99.90
45008;DHT22;30743;52.008;5.644;2024-02-04T09:38:16;13.00;99.90
45008;DHT22;30743;52.008;5.644;2024-02-04T09:40:41;13.10;99.90
45008;DHT22;30743;52.008;5.644;2024-02-04T09:43:08;13.00;99.90
45008;DHT22;30743;52.008;5.644;2024-02-04T09:45:34;13.10;99.90
45008;DHT22;30743;52.008;5.644;2024-02-04T09:48:01;13.10;99.90
45008;DHT22;30743;52.008;5.644;2024-02-04T09:50:27;13.10;99.90
45008;DHT22;30743;52.008;5.644;2024-02-04T09:52:58;13.10;99.90
45008;DHT22;30743;52.008;5.644;2024-02-04T09:55:24;13.50;99.90
45008;DHT22;30743;52.008;5.644;2024-02-04T09:57:50;13.10;99.90
45008;DHT22;30743;52.008;5.644;2024-02-04T10:00:18;13.40;99.90
45008;DHT22;30743;52.008;5.644;2024-02-04T10:02:44;13.50;99.90
45008;DHT22;30743;52.008;5.644;2024-02-04T10:05:10;13.40;99.90
45008;DHT22;30743;52.008;5.644;2024-02-04T10:07:36;13.40;99.90
45008;DHT22;30743;52.008;5.644;2024-02-04T10:10:02;13.40;99.90
45008;DHT22;30743;52.008;5.644;2024-02-04T10:12:28;13.50;99.90
45008;DHT22;30743;52.008;5.644;2024-02-04T10:14:53;13.40;99.90
45008;DHT22;30743;52.008;5.644;2024-02-04T10:17:19;14.50;99.90
45008;DHT22;30743;52.008;5.644;2024-02-04T10:19:48;13.30;99.90
45008;DHT22;30743;52.008;5.644;2024-02-04T10:22:14;13.40;99.90
45008;DHT22;30743;52.008;5.644;2024-02-04T10:24:42;13.30;99.90
45008;DHT22;30743;52.008;5.644;2024-02-04T10:27:10;13.30;99.90
45008;DHT22;30743;52.008;5.644;2024-02-04T10:29:36;13.40;99.90
45008;DHT22;30743;52.008;5.644;2024-02-04T10:32:02;13.30;99.90
45008;DHT22;30743;52.008;5.644;2024-02-04T10:34:28;13.40;99.90
45008;DHT22;30743;52.008;5.644;2024-02-04T10:36:56;14.10;99.90
45008;DHT22;30743;52.008;5.644;2024-02-04T10:39:21;13.50;99.90
45008;DHT22;30743;52.008;5.644;2024-02-04T10:41:52;13.50;99.90
45008;DHT22;30743;52.008;5.644;2024-02-04T10:44:21;13.50;99.90
45008;DHT22;30743;52.008;5.644;2024-02-04T10:46:47;13.60;99.90
45008;DHT22;30743;52.008;5.644;2024-02-04T10:49:14;13.80;99.90
45008;DHT22;30743;52.008;5.644;2024-02-04T10:51:42;13.90;99.90
45008;DHT22;30743;52.008;5.644;2024-02-04T10:54:08;13.90;99.90
45008;DHT22;30743;52.008;5.644;2024-02-04T10:56:40;14.10;99.90
45008;DHT22;30743;52.008;5.644;2024-02-04T10:59:07;15.50;99.90
45008;DHT22;30743;52.008;5.644;2024-02-04T11:01:35;14.20;99.90
45008;DHT22;30743;52.008;5.644;2024-02-04T11:04:02;14.30;99.90
45008;DHT22;30743;52.008;5.644;2024-02-04T11:06:29;13.90;99.90
45008;DHT22;30743;52.008;5.644;2024-02-04T11:08:56;13.80;99.90
45008;DHT22;30743;52.008;5.644;2024-02-04T11:11:24;13.80;99.90
45008;DHT22;30743;52.008;5.644;2024-02-04T11:13:55;14.00;99.90
45008;DHT22;30743;52.008;5.644;2024-02-04T11:19:23;14.30;99.90
45008;DHT22;30743;52.008;5.644;2024-02-04T11:22:16;14.30;99.90
45008;DHT22;30743;52.008;5.644;2024-02-04T11:27:30;14.40;99.90
45008;DHT22;30743;52.008;5.644;2024-02-04T11:29:56;14.40;99.90
45008;DHT22;30743;52.008;5.644;2024-02-04T11:32:24;15.40;99.90
45008;DHT22;30743;52.008;5.644;2024-02-04T11:34:50;14.50;99.90
45008;DHT22;30743;52.008;5.644;2024-02-04T11:37:19;16.10;99.90
45008;DHT22;30743;52.008;5.644;2024-02-04T11:39:52;15.50;99.90
45008;DHT22;30743;52.008;5.644;2024-02-04T11:42:18;14.30;99.90
45008;DHT22;30743;52.008;5.644;2024-02-04T11:44:45;14.20;99.90
45008;DHT22;30743;52.008;5.644;2024-02-04T11:47:11;15.10;99.90
45008;DHT22;30743;52.008;5.644;2024-02-04T11:49:36;13.90;99.90
45008;DHT22;30743;52.008;5.644;2024-02-04T11:52:02;13.70;99.90
45008;DHT22;30743;52.008;5.644;2024-02-04T11:54:29;13.70;99.90
45008;DHT22;30743;52.008;5.644;2024-02-04T11:56:55;13.50;99.90
45008;DHT22;30743;52.008;5.644;2024-02-04T11:59:23;13.60;99.90
45008;DHT22;30743;52.008;5.644;2024-02-04T12:01:53;13.60;99.90
45008;DHT22;30743;52.008;5.644;2024-02-04T12:04:20;13.70;99.90
45008;DHT22;30743;52.008;5.644;2024-02-04T12:06:47;14.90;99.90
45008;DHT22;30743;52.008;5.644;2024-02-04T12:09:17;13.70;99.90
45008;DHT22;30743;52.008;5.644;2024-02-04T12:11:44;13.50;99.90
45008;DHT22;30743;52.008;5.644;2024-02-04T12:14:10;13.60;99.90
45008;DHT22;30743;52.008;5.644;2024-02-04T12:16:36;13.60;99.90
45008;DHT22;30743;52.008;5.644;2024-02-04T12:19:02;13.60;99.90
45008;DHT22;30743;52.008;5.644;2024-02-04T12:21:31;13.60;99.90
45008;DHT22;30743;52.008;5.644;2024-02-04T12:24:00;13.60;99.90
45008;DHT22;30743;52.008;5.644;2024-02-04T12:26:26;13.60;99.90
45008;DHT22;30743;52.008;5.644;2024-02-04T12:28:52;13.60;99.90
45008;DHT22;30743;52.008;5.644;2024-02-04T12:31:25;13.50;99.90
45008;DHT22;30743;52.008;5.644;2024-02-04T12:33:58;13.50;99.90
45008;DHT22;30743;52.008;5.644;2024-02-04T12:36:28;13.00;99.90
45008;DHT22;30743;52.008;5.644;2024-02-04T12:38:55;13.00;99.90
45008;DHT22;30743;52.008;5.644;2024-02-04T12:41:22;13.10;99.90
45008;DHT22;30743;52.008;5.644;2024-02-04T12:43:58;13.30;99.90
45008;DHT22;30743;52.008;5.644;2024-02-04T12:46:24;13.30;99.90
45008;DHT22;30743;52.008;5.644;2024-02-04T12:51:32;13.30;99.90
45008;DHT22;30743;52.008;5.644;2024-02-04T12:54:06;13.20;99.90
45008;DHT22;30743;52.008;5.644;2024-02-04T12:56:50;14.90;99.90
45008;DHT22;30743;52.008;5.644;2024-02-04T12:59:33;13.20;99.90
45008;DHT22;30743;52.008;5.644;2024-02-04T13:02:03;13.30;99.90
45008;DHT22;30743;52.008;5.644;2024-02-04T13:04:48;15.10;99.90
45008;DHT22;30743;52.008;5.644;2024-02-04T13:07:14;13.50;99.90
45008;DHT22;30743;52.008;5.644;2024-02-04T13:09:42;13.50;99.90
45008;DHT22;30743;52.008;5.644;2024-02-04T13:12:09;13.20;99.90
45008;DHT22;30743;52.008;5.644;2024-02-04T13:14:38;13.20;99.90
45008;DHT22;30743;52.008;5.644;2024-02-04T13:17:05;13.00;99.90
45008;DHT22;30743;52.008;5.644;2024-02-04T13:19:34;13.10;99.90
45008;DHT22;30743;52.008;5.644;2024-02-04T13:22:02;13.20;99.90
45008;DHT22;30743;52.008;5.644;2024-02-04T13:24:29;13.30;99.90
45008;DHT22;30743;52.008;5.644;2024-02-04T13:26:54;13.30;99.90
45008;DHT22;30743;52.008;5.644;2024-02-04T13:29:20;13.30;99.90
45008;DHT22;30743;52.008;5.644;2024-02-04T13:31:45;13.50;99.90
45008;DHT22;30743;52.008;5.644;2024-02-04T13:34:11;14.30;99.90
45008;DHT22;30743;52.008;5.644;2024-02-04T13:36:36;13.30;99.90
45008;DHT22;30743;52.008;5.644;2024-02-04T13:39:02;13.40;99.90
45008;DHT22;30743;52.008;5.644;2024-02-04T13:41:28;13.40;99.90
45008;DHT22;30743;52.008;5.644;2024-02-04T13:43:53;13.50;99.90
45008;DHT22;30743;52.008;5.644;2024-02-04T13:46:19;13.60;99.90
45008;DHT22;30743;52.008;5.644;2024-02-04T13:48:45;13.60;99.90
45008;DHT22;30743;52.008;5.644;2024-02-04T13:51:11;13.60;99.90
45008;DHT22;30743;52.008;5.644;2024-02-04T13:53:36;14.40;99.90
45008;DHT22;30743;52.008;5.644;2024-02-04T13:56:02;13.70;99.90
45008;DHT22;30743;52.008;5.644;2024-02-04T13:58:28;13.50;99.90
45008;DHT22;30743;52.008;5.644;2024-02-04T14:00:53;14.80;99.90
45008;DHT22;30743;52.008;5.644;2024-02-04T14:03:19;13.60;99.90
45008;DHT22;30743;52.008;5.644;2024-02-04T14:05:45;13.50;99.90
45008;DHT22;30743;52.008;5.644;2024-02-04T14:08:10;13.80;99.90
45008;DHT22;30743;52.008;5.644;2024-02-04T14:10:36;13.20;99.90
45008;DHT22;30743;52.008;5.644;2024-02-04T14:13:02;13.10;99.90
45008;DHT22;30743;52.008;5.644;2024-02-04T14:15:28;13.00;99.90
45008;DHT22;30743;52.008;5.644;2024-02-04T14:17:54;13.10;99.90
45008;DHT22;30743;52.008;5.644;2024-02-04T14:20:19;13.40;99.90
45008;DHT22;30743;52.008;5.644;2024-02-04T14:22:45;13.50;99.90
45008;DHT22;30743;52.008;5.644;2024-02-04T14:25:10;13.60;99.90
45008;DHT22;30743;52.008;5.644;2024-02-04T14:27:38;13.50;99.90
45008;DHT22;30743;52.008;5.644;2024-02-04T14:30:04;13.60;99.90
45008;DHT22;30743;52.008;5.644;2024-02-04T14:32:32;13.70;99.90
45008;DHT22;30743;52.008;5.644;2024-02-04T14:34:57;13.90;99.90
45008;DHT22;30743;52.008;5.644;2024-02-04T14:37:23;13.70;99.90
45008;DHT22;30743;52.008;5.644;2024-02-04T14:39:49;13.70;99.90
45008;DHT22;30743;52.008;5.644;2024-02-04T14:42:16;13.60;99.90
45008;DHT22;30743;52.008;5.644;2024-02-04T14:44:43;13.20;99.90
45008;DHT22;30743;52.008;5.644;2024-02-04T14:47:09;13.40;99.90
45008;DHT22;30743;52.008;5.644;2024-02-04T14:49:36;13.40;99.90
45008;DHT22;30743;52.008;5.644;2024-02-04T14:52:02;13.40;99.90
45008;DHT22;30743;52.008;5.644;2024-02-04T14:54:28;13.30;99.90
45008;DHT22;30743;52.008;5.644;2024-02-04T14:56:53;13.30;99.90
45008;DHT22;30743;52.008;5.644;2024-02-04T14:59:19;13.40;99.90
45008;DHT22;30743;52.008;5.644;2024-02-04T15:01:45;13.40;99.90
45008;DHT22;30743;52.008;5.644;2024-02-04T15:04:11;14.80;99.90
45008;DHT22;30743;52.008;5.644;2024-02-04T15:06:39;13.40;99.90
45008;DHT22;30743;52.008;5.644;2024-02-04T15:09:05;14.10;99.90
45008;DHT22;30743;52.008;5.644;2024-02-04T15:11:30;13.20;99.90
45008;DHT22;30743;52.008;5.644;2024-02-04T15:13:57;13.10;99.90
45008;DHT22;30743;52.008;5.644;2024-02-04T15:16:23;13.00;99.90
45008;DHT22;30743;52.008;5.644;2024-02-04T15:18:49;13.10;99.90
45008;DHT22;30743;52.008;5.644;2024-02-04T15:21:15;13.20;99.90
45008;DHT22;30743;52.008;5.644;2024-02-04T15:23:41;13.40;99.90
45008;DHT22;30743;52.008;5.644;2024-02-04T15:26:14;13.60;99.90
45008;DHT22;30743;52.008;5.644;2024-02-04T15:28:41;13.40;99.90
45008;DHT22;30743;52.008;5.644;2024-02-04T15:31:07;13.40;99.90
45008;DHT22;30743;52.008;5.644;2024-02-04T15:33:34;13.30;99.90
45008;DHT22;30743;52.008;5.644;2024-02-04T15:35:59;13.20;99.90